sensor_id;sensor_type;location;lat;lon;timestamp;pressure;altitude;pressure_sealevel;temperature;humidity
56241;BME280;42155;53.096;23.226;2023-04-26T00:01:03;98856.59;;;6.80;79.88
56241;BME280;42155;53.096;23.226;2023-04-26T00:03:04;98881.25;;;6.90;79.23
56241;BME280;42155;53.096;23.226;2023-04-26T00:05:05;98869.06;;;6.78;79.49
56241;BME280;42155;53.096;23.226;2023-04-26T00:07:06;98884.75;;;6.79;79.84
56241;BME280;42155;53.096;23.226;2023-04-26T00:09:06;98891.13;;;6.77;79.81
56241;BME280;42155;53.096;23.226;2023-04-26T00:11:07;98873.09;;;6.61;79.34
56241;BME280;42155;53.096;23.226;2023-04-26T00:13:07;98897.59;;;6.73;79.57
56241;BME280;42155;53.096;23.226;2023-04-26T00:15:08;98899.53;;;6.71;79.94
56241;BME280;42155;53.096;23.226;2023-04-26T00:17:08;98864.38;;;6.49;79.54
56241;BME280;42155;53.096;23.226;2023-04-26T00:19:09;98917.50;;;6.77;79.91
56241;BME280;42155;53.096;23.226;2023-04-26T00:21:09;98915.94;;;6.74;79.82
56241;BME280;42155;53.096;23.226;2023-04-26T00:23:09;98919.41;;;6.75;79.98
56241;BME280;42155;53.096;23.226;2023-04-26T00:25:10;98893.44;;;6.59;79.63
56241;BME280;42155;53.096;23.226;2023-04-26T00:27:10;98917.72;;;6.85;79.52
56241;BME280;42155;53.096;23.226;2023-04-26T00:29:10;98914.63;;;6.69;78.93
56241;BME280;42155;53.096;23.226;2023-04-26T00:31:15;98931.56;;;6.66;79.36
56241;BME280;42155;53.096;23.226;2023-04-26T00:33:15;98938.72;;;6.64;79.27
56241;BME280;42155;53.096;23.226;2023-04-26T00:35:15;98917.78;;;6.51;79.03
56241;BME280;42155;53.096;23.226;2023-04-26T00:37:16;98928.22;;;6.53;79.19
56241;BME280;42155;53.096;23.226;2023-04-26T00:39:16;98923.59;;;6.34;79.33
56241;BME280;42155;53.096;23.226;2023-04-26T00:41:16;98906.09;;;6.22;79.38
56241;BME280;42155;53.096;23.226;2023-04-26T00:43:17;98935.78;;;6.35;79.87
56241;BME280;42155;53.096;23.226;2023-04-26T00:45:17;98942.38;;;6.41;79.67
56241;BME280;42155;53.096;23.226;2023-04-26T00:47:17;98929.31;;;6.28;79.64
56241;BME280;42155;53.096;23.226;2023-04-26T00:49:21;98955.06;;;6.47;79.39
56241;BME280;42155;53.096;23.226;2023-04-26T00:51:22;98954.22;;;6.46;79.75
56241;BME280;42155;53.096;23.226;2023-04-26T00:53:22;98933.28;;;6.33;79.39
56241;BME280;42155;53.096;23.226;2023-04-26T00:55:23;98955.91;;;6.47;79.55
56241;BME280;42155;53.096;23.226;2023-04-26T00:57:24;98964.06;;;6.44;79.47
56241;BME280;42155;53.096;23.226;2023-04-26T00:59:25;98980.84;;;6.43;79.64
56241;BME280;42155;53.096;23.226;2023-04-26T01:01:25;98974.59;;;6.33;78.87
56241;BME280;42155;53.096;23.226;2023-04-26T01:03:25;98982.50;;;6.22;79.38
56241;BME280;42155;53.096;23.226;2023-04-26T01:05:26;98963.56;;;6.05;79.08
56241;BME280;42155;53.096;23.226;2023-04-26T01:07:26;98978.41;;;5.95;79.44
56241;BME280;42155;53.096;23.226;2023-04-26T01:09:27;98966.63;;;5.77;79.84
56241;BME280;42155;53.096;23.226;2023-04-26T01:11:30;98980.84;;;5.63;80.41
56241;BME280;42155;53.096;23.226;2023-04-26T01:13:32;98951.19;;;5.26;80.03
56241;BME280;42155;53.096;23.226;2023-04-26T01:15:32;98986.50;;;5.34;80.35
56241;BME280;42155;53.096;23.226;2023-04-26T01:17:33;98996.53;;;5.29;80.54
56241;BME280;42155;53.096;23.226;2023-04-26T01:19:33;98999.47;;;5.14;80.56
56241;BME280;42155;53.096;23.226;2023-04-26T01:21:33;99009.53;;;5.20;81.31
56241;BME280;42155;53.096;23.226;2023-04-26T01:23:34;99013.50;;;5.25;80.83
56241;BME280;42155;53.096;23.226;2023-04-26T01:25:34;99014.78;;;5.20;80.83
56241;BME280;42155;53.096;23.226;2023-04-26T01:27:35;99011.88;;;5.11;80.60
56241;BME280;42155;53.096;23.226;2023-04-26T01:29:35;99007.69;;;5.09;80.38
56241;BME280;42155;53.096;23.226;2023-04-26T01:31:35;99011.00;;;5.00;80.51
56241;BME280;42155;53.096;23.226;2023-04-26T01:33:36;99012.59;;;4.90;80.78
56241;BME280;42155;53.096;23.226;2023-04-26T01:35:36;99021.78;;;4.84;81.59
56241;BME280;42155;53.096;23.226;2023-04-26T01:37:36;99014.44;;;4.76;81.49
56241;BME280;42155;53.096;23.226;2023-04-26T01:39:37;99015.94;;;4.68;81.33
56241;BME280;42155;53.096;23.226;2023-04-26T01:41:37;99016.88;;;4.67;81.59
56241;BME280;42155;53.096;23.226;2023-04-26T01:43:37;98981.75;;;4.44;81.14
56241;BME280;42155;53.096;23.226;2023-04-26T01:45:38;99019.63;;;4.65;80.92
56241;BME280;42155;53.096;23.226;2023-04-26T01:47:38;99024.66;;;4.68;80.90
56241;BME280;42155;53.096;23.226;2023-04-26T01:49:38;99039.19;;;4.61;81.12
56241;BME280;42155;53.096;23.226;2023-04-26T01:51:39;99039.50;;;4.56;80.71
56241;BME280;42155;53.096;23.226;2023-04-26T01:53:39;99039.53;;;4.44;80.61
56241;BME280;42155;53.096;23.226;2023-04-26T01:55:39;99052.88;;;4.53;80.96
56241;BME280;42155;53.096;23.226;2023-04-26T01:57:40;99052.00;;;4.53;80.79
56241;BME280;42155;53.096;23.226;2023-04-26T01:59:40;99032.31;;;4.34;81.13
56241;BME280;42155;53.096;23.226;2023-04-26T02:01:41;99036.50;;;4.24;81.06
56241;BME280;42155;53.096;23.226;2023-04-26T02:03:41;99048.28;;;4.31;81.03
56241;BME280;42155;53.096;23.226;2023-04-26T02:05:42;99037.88;;;4.17;81.18
56241;BME280;42155;53.096;23.226;2023-04-26T02:07:42;99044.72;;;4.07;81.49
56241;BME280;42155;53.096;23.226;2023-04-26T02:09:42;99041.75;;;3.99;81.57
56241;BME280;42155;53.096;23.226;2023-04-26T02:11:43;99045.63;;;4.06;81.42
56241;BME280;42155;53.096;23.226;2023-04-26T02:13:43;99034.72;;;3.99;81.65
56241;BME280;42155;53.096;23.226;2023-04-26T02:15:48;99026.53;;;3.91;81.42
56241;BME280;42155;53.096;23.226;2023-04-26T02:17:48;99037.97;;;3.90;81.16
56241;BME280;42155;53.096;23.226;2023-04-26T02:19:48;98981.22;;;3.37;81.42
56241;BME280;42155;53.096;23.226;2023-04-26T02:21:53;99032.91;;;3.62;81.89
56241;BME280;42155;53.096;23.226;2023-04-26T02:23:53;99036.78;;;3.56;81.86
56241;BME280;42155;53.096;23.226;2023-04-26T02:25:53;99035.19;;;3.53;81.89
56241;BME280;42155;53.096;23.226;2023-04-26T02:27:54;99004.59;;;3.27;81.91
56241;BME280;42155;53.096;23.226;2023-04-26T02:29:54;99038.84;;;3.38;82.09
56241;BME280;42155;53.096;23.226;2023-04-26T02:31:54;99038.09;;;3.36;81.71
56241;BME280;42155;53.096;23.226;2023-04-26T02:33:55;99044.81;;;3.40;82.24
56241;BME280;42155;53.096;23.226;2023-04-26T02:35:55;99049.34;;;3.38;81.74
56241;BME280;42155;53.096;23.226;2023-04-26T02:37:55;99046.91;;;3.35;81.85
56241;BME280;42155;53.096;23.226;2023-04-26T02:39:56;99052.34;;;3.32;82.00
56241;BME280;42155;53.096;23.226;2023-04-26T02:41:56;99051.06;;;3.25;82.57
56241;BME280;42155;53.096;23.226;2023-04-26T02:43:56;99047.91;;;3.20;82.14
56241;BME280;42155;53.096;23.226;2023-04-26T02:45:57;99053.16;;;3.20;83.10
56241;BME280;42155;53.096;23.226;2023-04-26T02:47:57;99044.16;;;3.24;82.79
56241;BME280;42155;53.096;23.226;2023-04-26T02:49:57;99045.53;;;3.29;82.33
56241;BME280;42155;53.096;23.226;2023-04-26T02:51:58;99041.22;;;3.28;82.62
56241;BME280;42155;53.096;23.226;2023-04-26T02:53:58;99035.34;;;3.25;82.11
56241;BME280;42155;53.096;23.226;2023-04-26T02:55:59;99035.22;;;3.26;82.28
56241;BME280;42155;53.096;23.226;2023-04-26T02:57:59;99023.38;;;3.21;nan
56241;BME280;42155;53.096;23.226;2023-04-26T02:59:59;99006.44;;;3.12;82.72
56241;BME280;42155;53.096;23.226;2023-04-26T03:02:00;99026.72;;;3.23;82.36
56241;BME280;42155;53.096;23.226;2023-04-26T03:04:00;99032.38;;;3.17;82.58
56241;BME280;42155;53.096;23.226;2023-04-26T03:06:00;99030.03;;;3.12;82.59
56241;BME280;42155;53.096;23.226;2023-04-26T03:08:01;99025.81;;;3.10;nan
56241;BME280;42155;53.096;23.226;2023-04-26T03:10:01;99019.75;;;3.09;82.94
56241;BME280;42155;53.096;23.226;2023-04-26T03:12:01;99001.38;;;2.96;82.90
56241;BME280;42155;53.096;23.226;2023-04-26T03:14:01;99023.13;;;3.11;82.92
56241;BME280;42155;53.096;23.226;2023-04-26T03:16:02;98968.50;;;2.78;82.90
56241;BME280;42155;53.096;23.226;2023-04-26T03:18:02;99027.41;;;3.12;82.59
56241;BME280;42155;53.096;23.226;2023-04-26T03:20:03;99034.25;;;3.15;82.85
56241;BME280;42155;53.096;23.226;2023-04-26T03:22:03;99032.19;;;3.20;82.79
56241;BME280;42155;53.096;23.226;2023-04-26T03:24:04;99047.50;;;3.26;82.78
56241;BME280;42155;53.096;23.226;2023-04-26T03:26:05;99044.34;;;3.21;82.27
56241;BME280;42155;53.096;23.226;2023-04-26T03:28:05;99022.38;;;3.09;82.49
56241;BME280;42155;53.096;23.226;2023-04-26T03:30:06;99056.31;;;3.25;82.30
56241;BME280;42155;53.096;23.226;2023-04-26T03:32:06;98968.53;;;2.64;82.17
56241;BME280;42155;53.096;23.226;2023-04-26T03:34:07;99067.19;;;3.19;82.77
56241;BME280;42155;53.096;23.226;2023-04-26T03:36:07;99078.72;;;3.16;82.64
56241;BME280;42155;53.096;23.226;2023-04-26T03:38:07;99077.03;;;3.15;82.74
56241;BME280;42155;53.096;23.226;2023-04-26T03:40:08;99030.38;;;2.93;82.64
56241;BME280;42155;53.096;23.226;2023-04-26T03:42:09;99053.53;;;3.14;82.43
56241;BME280;42155;53.096;23.226;2023-04-26T03:44:09;99070.56;;;3.21;82.19
56241;BME280;42155;53.096;23.226;2023-04-26T03:46:09;99085.69;;;3.30;82.58
56241;BME280;42155;53.096;23.226;2023-04-26T03:48:10;99087.56;;;3.28;82.67
56241;BME280;42155;53.096;23.226;2023-04-26T03:50:10;99087.41;;;3.17;82.61
56241;BME280;42155;53.096;23.226;2023-04-26T03:52:10;99055.41;;;3.12;82.14
56241;BME280;42155;53.096;23.226;2023-04-26T03:54:10;99000.53;;;2.69;82.57
56241;BME280;42155;53.096;23.226;2023-04-26T03:56:11;99095.28;;;3.17;82.78
56241;BME280;42155;53.096;23.226;2023-04-26T03:58:11;99003.63;;;2.61;83.21
56241;BME280;42155;53.096;23.226;2023-04-26T04:00:12;99096.88;;;3.19;82.96
56241;BME280;42155;53.096;23.226;2023-04-26T04:02:12;99084.38;;;3.10;82.56
56241;BME280;42155;53.096;23.226;2023-04-26T04:04:14;99068.56;;;2.97;82.59
56241;BME280;42155;53.096;23.226;2023-04-26T04:06:14;99100.53;;;3.17;82.49
56241;BME280;42155;53.096;23.226;2023-04-26T04:08:15;99096.31;;;3.14;82.73
56241;BME280;42155;53.096;23.226;2023-04-26T04:10:15;99096.47;;;3.25;83.00
56241;BME280;42155;53.096;23.226;2023-04-26T04:12:16;99063.28;;;3.12;82.78
56241;BME280;42155;53.096;23.226;2023-04-26T04:14:16;99101.31;;;3.31;82.83
56241;BME280;42155;53.096;23.226;2023-04-26T04:16:16;99098.91;;;3.28;82.55
56241;BME280;42155;53.096;23.226;2023-04-26T04:18:17;99104.59;;;3.35;82.89
56241;BME280;42155;53.096;23.226;2023-04-26T04:20:17;99107.75;;;3.40;82.95
56241;BME280;42155;53.096;23.226;2023-04-26T04:22:17;99093.91;;;3.38;81.91
56241;BME280;42155;53.096;23.226;2023-04-26T04:24:18;99109.78;;;3.49;81.91
56241;BME280;42155;53.096;23.226;2023-04-26T04:26:18;99105.00;;;3.56;82.44
56241;BME280;42155;53.096;23.226;2023-04-26T04:28:18;99108.22;;;3.60;81.87
56241;BME280;42155;53.096;23.226;2023-04-26T04:30:19;99096.25;;;3.55;81.60
56241;BME280;42155;53.096;23.226;2023-04-26T04:32:20;99110.19;;;3.70;81.86
56241;BME280;42155;53.096;23.226;2023-04-26T04:34:20;99119.06;;;3.68;81.65
56241;BME280;42155;53.096;23.226;2023-04-26T04:36:21;99117.09;;;3.71;81.94
56241;BME280;42155;53.096;23.226;2023-04-26T04:38:21;99108.69;;;3.66;81.24
56241;BME280;42155;53.096;23.226;2023-04-26T04:40:22;99114.16;;;3.76;81.67
56241;BME280;42155;53.096;23.226;2023-04-26T04:42:23;99112.28;;;3.78;81.28
56241;BME280;42155;53.096;23.226;2023-04-26T04:44:23;99090.31;;;3.66;81.46
56241;BME280;42155;53.096;23.226;2023-04-26T04:46:24;99115.03;;;3.89;81.35
56241;BME280;42155;53.096;23.226;2023-04-26T04:48:24;99117.13;;;3.97;81.31
56241;BME280;42155;53.096;23.226;2023-04-26T04:50:24;99128.28;;;4.00;81.21
56241;BME280;42155;53.096;23.226;2023-04-26T04:52:25;99129.97;;;4.01;81.07
56241;BME280;42155;53.096;23.226;2023-04-26T04:54:25;99125.53;;;4.02;80.91
56241;BME280;42155;53.096;23.226;2023-04-26T04:56:25;99132.06;;;3.96;80.96
56241;BME280;42155;53.096;23.226;2023-04-26T04:58:26;99137.59;;;3.92;81.16
56241;BME280;42155;53.096;23.226;2023-04-26T05:00:26;99129.53;;;3.95;80.90
56241;BME280;42155;53.096;23.226;2023-04-26T05:02:26;99138.97;;;3.97;81.03
56241;BME280;42155;53.096;23.226;2023-04-26T05:04:27;99113.34;;;3.88;81.51
56241;BME280;42155;53.096;23.226;2023-04-26T05:06:27;99136.81;;;4.17;80.65
56241;BME280;42155;53.096;23.226;2023-04-26T05:08:27;99127.47;;;4.13;80.98
56241;BME280;42155;53.096;23.226;2023-04-26T05:10:28;99056.00;;;3.69;80.62
56241;BME280;42155;53.096;23.226;2023-04-26T05:12:28;99137.78;;;4.28;80.77
56241;BME280;42155;53.096;23.226;2023-04-26T05:14:29;99141.97;;;4.31;80.51
56241;BME280;42155;53.096;23.226;2023-04-26T05:16:30;99139.16;;;4.21;80.63
56241;BME280;42155;53.096;23.226;2023-04-26T05:18:30;99079.75;;;3.80;80.57
56241;BME280;42155;53.096;23.226;2023-04-26T05:20:30;99137.75;;;4.16;81.12
56241;BME280;42155;53.096;23.226;2023-04-26T05:22:31;99122.00;;;4.03;80.99
56241;BME280;42155;53.096;23.226;2023-04-26T05:24:31;99153.09;;;4.09;80.95
56241;BME280;42155;53.096;23.226;2023-04-26T05:26:33;99143.63;;;4.06;81.39
56241;BME280;42155;53.096;23.226;2023-04-26T05:28:34;99131.75;;;4.01;81.59
56241;BME280;42155;53.096;23.226;2023-04-26T05:30:34;99144.91;;;4.14;81.39
56241;BME280;42155;53.096;23.226;2023-04-26T05:32:34;99100.63;;;3.82;81.13
56241;BME280;42155;53.096;23.226;2023-04-26T05:34:35;99151.41;;;4.08;81.23
56241;BME280;42155;53.096;23.226;2023-04-26T05:36:35;99151.28;;;4.09;81.01
56241;BME280;42155;53.096;23.226;2023-04-26T05:38:35;99142.16;;;4.02;80.76
56241;BME280;42155;53.096;23.226;2023-04-26T05:40:36;99156.66;;;4.08;81.15
56241;BME280;42155;53.096;23.226;2023-04-26T05:42:36;99157.28;;;3.99;81.44
56241;BME280;42155;53.096;23.226;2023-04-26T05:44:36;99161.16;;;3.93;81.38
56241;BME280;42155;53.096;23.226;2023-04-26T05:46:36;99152.41;;;3.93;81.71
56241;BME280;42155;53.096;23.226;2023-04-26T05:48:37;99158.72;;;3.90;81.50
56241;BME280;42155;53.096;23.226;2023-04-26T05:50:37;99134.94;;;3.79;81.74
56241;BME280;42155;53.096;23.226;2023-04-26T05:52:37;99155.97;;;3.92;81.52
56241;BME280;42155;53.096;23.226;2023-04-26T05:54:38;99156.81;;;3.92;81.62
56241;BME280;42155;53.096;23.226;2023-04-26T05:56:38;99158.31;;;3.96;81.68
56241;BME280;42155;53.096;23.226;2023-04-26T05:58:38;99153.59;;;4.01;81.48
56241;BME280;42155;53.096;23.226;2023-04-26T06:00:39;99144.47;;;4.07;81.52
56241;BME280;42155;53.096;23.226;2023-04-26T06:02:40;99149.81;;;4.05;81.21
56241;BME280;42155;53.096;23.226;2023-04-26T06:04:40;99079.00;;;3.66;81.40
56241;BME280;42155;53.096;23.226;2023-04-26T06:06:40;99129.97;;;4.01;81.27
56241;BME280;42155;53.096;23.226;2023-04-26T06:08:43;99150.16;;;4.14;81.69
56241;BME280;42155;53.096;23.226;2023-04-26T06:10:43;99148.78;;;4.08;81.51
56241;BME280;42155;53.096;23.226;2023-04-26T06:12:44;99145.31;;;4.07;81.93
56241;BME280;42155;53.096;23.226;2023-04-26T06:14:44;99148.66;;;4.09;81.29
56241;BME280;42155;53.096;23.226;2023-04-26T06:16:44;99153.72;;;4.13;81.79
56241;BME280;42155;53.096;23.226;2023-04-26T06:18:45;99150.78;;;4.17;81.78
56241;BME280;42155;53.096;23.226;2023-04-26T06:20:45;99160.03;;;4.23;81.71
56241;BME280;42155;53.096;23.226;2023-04-26T06:22:46;99154.59;;;4.26;81.62
56241;BME280;42155;53.096;23.226;2023-04-26T06:24:46;99156.47;;;4.37;81.16
56241;BME280;42155;53.096;23.226;2023-04-26T06:26:46;99159.13;;;4.37;81.15
56241;BME280;42155;53.096;23.226;2023-04-26T06:28:47;99139.22;;;4.20;81.57
56241;BME280;42155;53.096;23.226;2023-04-26T06:30:47;99143.25;;;4.25;81.53
56241;BME280;42155;53.096;23.226;2023-04-26T06:32:47;99165.72;;;4.42;81.40
56241;BME280;42155;53.096;23.226;2023-04-26T06:34:48;99170.34;;;4.51;81.54
56241;BME280;42155;53.096;23.226;2023-04-26T06:36:49;99173.63;;;4.55;81.38
56241;BME280;42155;53.096;23.226;2023-04-26T06:38:49;99168.88;;;4.60;81.52
56241;BME280;42155;53.096;23.226;2023-04-26T06:40:49;99169.28;;;4.67;81.65
56241;BME280;42155;53.096;23.226;2023-04-26T06:42:50;99174.34;;;4.82;80.94
56241;BME280;42155;53.096;23.226;2023-04-26T06:44:50;99131.59;;;4.68;80.82
56241;BME280;42155;53.096;23.226;2023-04-26T06:46:53;99172.31;;;4.99;80.90
56241;BME280;42155;53.096;23.226;2023-04-26T06:48:53;99170.25;;;5.04;80.45
56241;BME280;42155;53.096;23.226;2023-04-26T06:50:54;99153.91;;;4.99;80.68
56241;BME280;42155;53.096;23.226;2023-04-26T06:52:54;99171.59;;;5.09;80.53
56241;BME280;42155;53.096;23.226;2023-04-26T06:54:54;99177.56;;;5.11;80.34
56241;BME280;42155;53.096;23.226;2023-04-26T06:56:55;99133.75;;;4.87;80.31
56241;BME280;42155;53.096;23.226;2023-04-26T06:58:59;99172.81;;;5.17;80.31
56241;BME280;42155;53.096;23.226;2023-04-26T07:00:59;99146.44;;;5.18;79.94
56241;BME280;42155;53.096;23.226;2023-04-26T07:02:59;99177.41;;;5.39;79.63
56241;BME280;42155;53.096;23.226;2023-04-26T07:05:00;99182.44;;;5.42;80.11
56241;BME280;42155;53.096;23.226;2023-04-26T07:07:00;99174.13;;;5.35;79.75
56241;BME280;42155;53.096;23.226;2023-04-26T07:09:00;99179.75;;;5.54;79.52
56241;BME280;42155;53.096;23.226;2023-04-26T07:11:01;99177.66;;;5.59;79.52
56241;BME280;42155;53.096;23.226;2023-04-26T07:13:01;99185.28;;;5.75;79.39
56241;BME280;42155;53.096;23.226;2023-04-26T07:15:02;99188.38;;;5.93;79.40
56241;BME280;42155;53.096;23.226;2023-04-26T07:17:02;99151.31;;;5.83;78.28
56241;BME280;42155;53.096;23.226;2023-04-26T07:19:02;99193.75;;;6.16;78.74
56241;BME280;42155;53.096;23.226;2023-04-26T07:21:03;99195.91;;;6.22;78.05
56241;BME280;42155;53.096;23.226;2023-04-26T07:23:03;99139.06;;;5.95;78.48
56241;BME280;42155;53.096;23.226;2023-04-26T07:25:04;99203.81;;;6.57;78.17
56241;BME280;42155;53.096;23.226;2023-04-26T07:27:04;99207.78;;;6.74;77.46
56241;BME280;42155;53.096;23.226;2023-04-26T07:29:04;99178.28;;;6.69;77.27
56241;BME280;42155;53.096;23.226;2023-04-26T07:31:05;99209.59;;;6.96;77.23
56241;BME280;42155;53.096;23.226;2023-04-26T07:33:05;99204.94;;;7.10;77.16
56241;BME280;42155;53.096;23.226;2023-04-26T07:35:06;99204.69;;;7.13;76.77
56241;BME280;42155;53.096;23.226;2023-04-26T07:37:06;99213.78;;;7.21;76.52
56241;BME280;42155;53.096;23.226;2023-04-26T07:39:07;99185.75;;;7.08;76.22
56241;BME280;42155;53.096;23.226;2023-04-26T07:41:07;99195.09;;;7.24;76.22
56241;BME280;42155;53.096;23.226;2023-04-26T07:43:08;99200.34;;;7.46;75.72
56241;BME280;42155;53.096;23.226;2023-04-26T07:45:09;99197.78;;;7.67;75.66
56241;BME280;42155;53.096;23.226;2023-04-26T07:47:12;99148.94;;;7.61;75.74
56241;BME280;42155;53.096;23.226;2023-04-26T07:49:13;99194.41;;;8.08;75.03
56241;BME280;42155;53.096;23.226;2023-04-26T07:51:13;99203.66;;;8.35;74.17
56241;BME280;42155;53.096;23.226;2023-04-26T07:53:13;99194.34;;;8.52;74.30
56241;BME280;42155;53.096;23.226;2023-04-26T07:55:13;99199.84;;;8.60;73.42
56241;BME280;42155;53.096;23.226;2023-04-26T07:57:14;99205.44;;;8.66;73.39
56241;BME280;42155;53.096;23.226;2023-04-26T07:59:14;99200.34;;;8.75;72.45
56241;BME280;42155;53.096;23.226;2023-04-26T08:01:14;99198.53;;;8.75;73.03
56241;BME280;42155;53.096;23.226;2023-04-26T08:03:15;99200.22;;;8.76;71.76
56241;BME280;42155;53.096;23.226;2023-04-26T08:05:15;99201.03;;;8.77;72.66
56241;BME280;42155;53.096;23.226;2023-04-26T08:07:15;99211.19;;;8.92;72.41
56241;BME280;42155;53.096;23.226;2023-04-26T08:09:16;99162.25;;;8.87;71.97
56241;BME280;42155;53.096;23.226;2023-04-26T08:11:16;99207.41;;;9.26;71.45
56241;BME280;42155;53.096;23.226;2023-04-26T08:13:17;99204.16;;;9.43;71.50
56241;BME280;42155;53.096;23.226;2023-04-26T08:15:17;99189.69;;;9.57;70.53
56241;BME280;42155;53.096;23.226;2023-04-26T08:17:17;99204.75;;;9.66;70.53
56241;BME280;42155;53.096;23.226;2023-04-26T08:19:17;99198.22;;;9.80;70.87
56241;BME280;42155;53.096;23.226;2023-04-26T08:21:18;99207.16;;;9.98;69.97
56241;BME280;42155;53.096;23.226;2023-04-26T08:23:18;99137.81;;;9.74;69.90
56241;BME280;42155;53.096;23.226;2023-04-26T08:25:18;99201.91;;;10.17;70.17
56241;BME280;42155;53.096;23.226;2023-04-26T08:27:19;99155.69;;;10.01;69.62
56241;BME280;42155;53.096;23.226;2023-04-26T08:29:19;99197.84;;;10.23;69.11
56241;BME280;42155;53.096;23.226;2023-04-26T08:31:20;99201.59;;;10.01;68.48
56241;BME280;42155;53.096;23.226;2023-04-26T08:33:20;99198.94;;;9.91;68.92
56241;BME280;42155;53.096;23.226;2023-04-26T08:35:20;99201.59;;;10.01;67.96
56241;BME280;42155;53.096;23.226;2023-04-26T08:37:21;99198.38;;;9.98;68.14
56241;BME280;42155;53.096;23.226;2023-04-26T08:39:21;99192.38;;;9.95;67.78
56241;BME280;42155;53.096;23.226;2023-04-26T08:41:22;99197.28;;;10.00;67.74
56241;BME280;42155;53.096;23.226;2023-04-26T08:43:23;99198.38;;;10.07;67.76
56241;BME280;42155;53.096;23.226;2023-04-26T08:45:23;99201.91;;;10.08;66.80
56241;BME280;42155;53.096;23.226;2023-04-26T08:47:43;99201.91;;;10.17;66.50
56241;BME280;42155;53.096;23.226;2023-04-26T08:49:45;99202.56;;;10.19;66.45
56241;BME280;42155;53.096;23.226;2023-04-26T08:51:46;99202.56;;;10.19;66.78
56241;BME280;42155;53.096;23.226;2023-04-26T08:53:48;99204.13;;;10.22;65.73
56241;BME280;42155;53.096;23.226;2023-04-26T08:55:50;99179.69;;;9.99;65.27
56241;BME280;42155;53.096;23.226;2023-04-26T08:57:50;99207.88;;;10.10;65.08
56241;BME280;42155;53.096;23.226;2023-04-26T08:59:51;99206.78;;;10.12;65.69
56241;BME280;42155;53.096;23.226;2023-04-26T09:01:52;99211.22;;;10.02;64.95
56241;BME280;42155;53.096;23.226;2023-04-26T09:03:53;99215.94;;;9.89;64.80
56241;BME280;42155;53.096;23.226;2023-04-26T09:05:54;99212.34;;;9.90;65.17
56241;BME280;42155;53.096;23.226;2023-04-26T09:08:00;99202.31;;;10.03;64.02
56241;BME280;42155;53.096;23.226;2023-04-26T09:10:03;99203.00;;;10.15;63.88
56241;BME280;42155;53.096;23.226;2023-04-26T09:12:03;99210.38;;;10.21;63.25
56241;BME280;42155;53.096;23.226;2023-04-26T09:14:04;99203.00;;;10.15;62.08
56241;BME280;42155;53.096;23.226;2023-04-26T09:16:04;99217.91;;;9.87;62.16
56241;BME280;42155;53.096;23.226;2023-04-26T09:18:21;99124.19;;;9.18;62.43
56241;BME280;42155;53.096;23.226;2023-04-26T09:20:29;99217.31;;;9.74;63.09
56241;BME280;42155;53.096;23.226;2023-04-26T09:22:34;99217.88;;;9.67;62.31
56241;BME280;42155;53.096;23.226;2023-04-26T09:24:48;99216.72;;;9.60;62.88
56241;BME280;42155;53.096;23.226;2023-04-26T09:27:00;99215.38;;;9.76;63.05
56241;BME280;42155;53.096;23.226;2023-04-26T09:29:30;99230.19;;;9.98;62.17
56241;BME280;42155;53.096;23.226;2023-04-26T09:31:38;99219.72;;;9.96;62.49
56241;BME280;42155;53.096;23.226;2023-04-26T09:33:56;99222.66;;;10.03;62.15
56241;BME280;42155;53.096;23.226;2023-04-26T09:36:10;99214.00;;;10.10;61.82
56241;BME280;42155;53.096;23.226;2023-04-26T09:38:15;99213.19;;;10.00;61.47
56241;BME280;42155;53.096;23.226;2023-04-26T09:40:20;99205.22;;;9.90;61.50
56241;BME280;42155;53.096;23.226;2023-04-26T09:42:20;99214.00;;;9.91;61.77
56241;BME280;42155;53.096;23.226;2023-04-26T09:44:21;99217.06;;;9.86;62.18
56241;BME280;42155;53.096;23.226;2023-04-26T09:46:22;99215.09;;;9.98;62.00
56241;BME280;42155;53.096;23.226;2023-04-26T09:50:28;99213.06;;;10.50;59.96
56241;BME280;42155;53.096;23.226;2023-04-26T09:52:29;99221.31;;;10.47;59.85
56241;BME280;42155;53.096;23.226;2023-04-26T09:56:58;99220.63;;;10.45;59.47
56241;BME280;42155;53.096;23.226;2023-04-26T09:58:59;99186.84;;;10.28;59.98
56241;BME280;42155;53.096;23.226;2023-04-26T10:00:59;99185.84;;;10.48;59.59
56241;BME280;42155;53.096;23.226;2023-04-26T10:03:01;99218.56;;;10.86;58.06
56241;BME280;42155;53.096;23.226;2023-04-26T10:05:03;99218.47;;;10.78;58.45
56241;BME280;42155;53.096;23.226;2023-04-26T10:07:04;99215.25;;;10.74;57.27
56241;BME280;42155;53.096;23.226;2023-04-26T10:09:06;99202.28;;;10.61;57.77
56241;BME280;42155;53.096;23.226;2023-04-26T10:11:07;99202.28;;;10.61;57.11
56241;BME280;42155;53.096;23.226;2023-04-26T10:13:07;99218.22;;;10.61;56.83
56241;BME280;42155;53.096;23.226;2023-04-26T10:15:12;99219.34;;;10.49;56.25
56241;BME280;42155;53.096;23.226;2023-04-26T10:17:12;99219.09;;;10.33;56.24
56241;BME280;42155;53.096;23.226;2023-04-26T10:19:13;99234.41;;;10.19;56.35
56241;BME280;42155;53.096;23.226;2023-04-26T10:21:20;99228.81;;;10.13;56.50
56241;BME280;42155;53.096;23.226;2023-04-26T10:23:23;99219.06;;;10.13;56.68
56241;BME280;42155;53.096;23.226;2023-04-26T10:25:34;99211.94;;;10.24;57.00
56241;BME280;42155;53.096;23.226;2023-04-26T10:34:17;99183.91;;;10.31;55.54
56241;BME280;42155;53.096;23.226;2023-04-26T10:36:17;99187.34;;;10.60;55.10
56241;BME280;42155;53.096;23.226;2023-04-26T10:38:18;99202.03;;;10.64;54.02
56241;BME280;42155;53.096;23.226;2023-04-26T10:40:23;99219.88;;;10.62;54.19
56241;BME280;42155;53.096;23.226;2023-04-26T10:42:25;99216.81;;;10.57;54.44
56241;BME280;42155;53.096;23.226;2023-04-26T10:44:36;99221.00;;;10.69;54.68
56241;BME280;42155;53.096;23.226;2023-04-26T10:46:38;99209.66;;;10.87;54.66
56241;BME280;42155;53.096;23.226;2023-04-26T10:48:38;99193.94;;;11.03;54.02
56241;BME280;42155;53.096;23.226;2023-04-26T10:51:08;99223.03;;;11.42;53.58